Terminal Aerodrome Forecast
Issued by NWS Mobile, AL

Home | Current Version | Previous Version | Text Only | Print | Product List | Glossary On
Versions: 1 2 3 4 5 6 7 8 9 10 11 12 13 14 15 16 17 18 19 20 21 22 23 24 25 26 27 28 29 30 31 32 33 34 35
000
FTUS44 KMOB 191720
TAFPNS
TAF
KPNS 191720Z 1918/2018 11011KT P6SM BKN011
     FM200100 12008KT P6SM BKN020
     FM200600 12005KT 3SM BR BKN015
      TEMPO 2009/2013 1SM BR BKN010
     FM201500 13012KT 5SM BR OVC015=

USA.gov is the U.S. government's official web portal to all federal, state and local government web resources and services.